首页
METAR-TAF:

METAR-TAF

机场 :

阿伯茲福德國際機場

亞博斯福, 不列颠哥伦比亚, 加拿大

纬度: 49-02N, 经度: 122-22W, 海拔: 54米

当前天气观测

该预报发布于28分钟前的17:00 UTC
风速5节,风向
温度 15°C
湿度 94%
气压 1022 hPa
能見度: 8.0公里
散云层高于500英尺
多云层高于2500英尺
阴天层高于4000英尺
轻雾

METAR: CYXX 081700Z 18005KT 5SM BR SCT005 BKN025 OVC040 15/14 A3018 RMK SF3SC4SC1 SLP221

时间: 10:28 (17:28 UTC)

预报

该预报发布于1小时和20分钟前的16:08 UTC
预报有效从08日的 16点(UTC)到 09日的 12点(UTC)
风速3节,风向多变
能見度: 10公里
散云层高于400英尺
阴天层高于2500英尺
短暂存在
从 08日的 16点(UTC)到 08日的 18点(UTC)
能見度: 4.8公里
多云层高于400英尺
阴天层高于2000英尺
小雨, 轻雾
从 08日的 1800点(UTC)
风速6节,风向西转西南
能見度: 10公里
散云层高于2000英尺
多云层高于4000英尺
短暂存在
从 08日的 18点(UTC)到 08日的 20点(UTC)
多云层高于2000英尺
从 08日的 2200点(UTC)
风速10节,风向西南
能見度: 10公里
少量云层高于2000英尺
散云层高于5000英尺
从 09日的 0600点(UTC)
风速3节,风向多变
能見度: 10公里
少量云层高于2000英尺
多云层高于4000英尺

TAF: CYXX 081608Z 0816/0912 VRB03KT P6SM SCT004 OVC025 TEMPO 0816/0818 3SM -RA BR BKN004 OVC020 FM081800 24006KT P6SM SCT020 BKN040 TEMPO 0818/0820 BKN020 FM082200 22010KT P6SM FEW020 SCT050 FM090600 VRB03KT P6SM FEW020 BKN040 RMK NXT FCST BY 081800Z

超过4000个机场的气象观测和天气预报(METAR&TAF报告)。

可查询的气象台以黄色和红色小点在地图上表示。

将鼠标移到小点上方,可查看气象台名称。

然后点击查看天气观测和预报。

如需切换地图:点击带黑十字的绿色按钮放大地图;点击带横线的绿色按钮缩小地图;或者点击绿色箭头查看邻近地区的地图。


METAR-TAF: